EGQS

RAF Lossiemouth Airport

Lossiemouth, United Kingdom
METAR EGQS 251850Z 21019KT 9999 SCT040 SCT100 BKN250 14/09 Q1016 BLU
Observed Flight Rules
Sep-25 @ 18:50 UTC (13 minutes ago) Visual Flight Rules
Wind Visibility Clouds
210° at 19 knots 10,000+ meters
  • Scattered at 4,000' AGL
  • Scattered at 10,000' AGL
  • Broken at 25,000' AGL
Temperatures Readings
Current 14°C / 57°F
Dewpoint 9°C / 48°F
Humidity 72%
Altimeter 30" Hg
Pressure 1016 hPa
Elevation 13
METAR EGQS 251850Z 21019KT 9999 SCT040 SCT100 BKN250 14/09 Q1016 BLU
Observed Flight Rules
Sep-25 @ 18:50 UTC
(13 minutes ago)
VFR
Wind Visibility
210° at 19 knots 10,000+ meters
Clouds
  • Scattered at 4,000' AGL
  • Scattered at 10,000' AGL
  • Broken at 25,000' AGL
Temperature Dewpoint
14°C / 57°F 9°C / 48°F
Humidity Altimeter Pressure
72% 30" Hg 1016 hPa